createdAt,value
2019-05-23T00:01:25.095Z,1.50
2019-05-23T00:06:38.674Z,1.55
2019-05-23T00:11:46.331Z,1.52
2019-05-23T00:16:49.569Z,1.75
2019-05-23T00:21:54.023Z,1.27
2019-05-23T00:26:58.811Z,1.57
2019-05-23T00:32:15.347Z,1.77
2019-05-23T00:37:20.315Z,1.57
2019-05-23T00:42:25.179Z,1.77
2019-05-23T00:47:29.050Z,1.37
2019-05-23T00:52:33.168Z,1.40
2019-05-23T00:57:39.423Z,1.30
2019-05-23T01:02:44.331Z,1.12
2019-05-23T01:07:48.390Z,1.45
2019-05-23T01:12:51.611Z,1.35
2019-05-23T01:17:56.867Z,1.45
2019-05-23T01:23:01.736Z,1.43
2019-05-23T01:28:06.511Z,1.20
2019-05-23T01:33:10.501Z,1.10
2019-05-23T01:38:15.560Z,1.22
2019-05-23T01:43:20.060Z,1.12
2019-05-23T01:48:23.277Z,1.10
2019-05-23T01:53:26.495Z,1.30
2019-05-23T01:58:29.879Z,1.20
2019-05-23T02:03:33.763Z,1.32
2019-05-23T02:08:36.979Z,1.20
2019-05-23T02:13:40.197Z,1.20
2019-05-23T02:18:45.081Z,1.22
2019-05-23T02:23:48.651Z,1.30
2019-05-23T02:28:53.246Z,0.90
2019-05-23T02:33:56.928Z,1.10
2019-05-23T02:39:01.787Z,1.05
2019-05-23T02:44:09.557Z,1.07
2019-05-23T02:49:14.895Z,0.93
2019-05-23T02:54:19.591Z,1.12
2019-05-23T02:59:29.064Z,1.12
2019-05-23T03:04:33.916Z,1.20
2019-05-23T03:09:38.776Z,1.00
2019-05-23T03:14:42.758Z,1.10
2019-05-23T03:19:55.952Z,1.17
2019-05-23T03:25:03.221Z,1.20
2019-05-23T03:30:09.181Z,1.00
2019-05-23T03:35:14.037Z,1.00
2019-05-23T03:40:19.259Z,1.00
2019-05-23T03:45:24.180Z,1.00
2019-05-23T03:50:29.039Z,0.95
2019-05-23T03:55:32.840Z,1.07
2019-05-23T04:00:37.688Z,1.17
2019-05-23T04:05:40.930Z,1.20
2019-05-23T04:10:45.559Z,0.90
2019-05-23T04:15:48.796Z,0.90
2019-05-23T04:20:52.267Z,0.98
2019-05-23T04:25:55.757Z,1.20
2019-05-23T04:30:59.440Z,0.80
2019-05-23T04:36:03.137Z,0.78
2019-05-23T04:41:06.355Z,0.80
2019-05-23T04:46:09.741Z,0.70
2019-05-23T04:51:13.139Z,0.70
2019-05-23T04:56:17.230Z,0.70
2019-05-23T05:01:20.451Z,0.68
2019-05-23T05:06:23.680Z,0.82
2019-05-23T05:11:30.392Z,0.60
2019-05-23T05:16:32.508Z,0.60
2019-05-23T05:21:36.309Z,0.80
2019-05-23T05:26:39.529Z,0.78
2019-05-23T05:31:42.750Z,0.68
2019-05-23T05:36:46.335Z,0.70
2019-05-23T05:41:50.357Z,0.88
2019-05-23T05:46:53.545Z,0.62
2019-05-23T05:51:56.789Z,0.78
2019-05-23T05:57:00.066Z,0.82
2019-05-23T06:02:04.924Z,0.80
2019-05-23T06:07:15.867Z,0.98
2019-05-23T06:12:19.759Z,0.78
2019-05-23T06:17:23.247Z,0.85
2019-05-23T06:22:28.238Z,0.50
2019-05-23T06:27:31.451Z,0.57
2019-05-23T06:32:35.648Z,0.80
2019-05-23T06:37:39.846Z,0.70
2019-05-23T06:42:43.052Z,0.60
2019-05-23T06:47:46.256Z,0.70
2019-05-23T06:52:49.447Z,0.80
2019-05-23T06:57:52.925Z,0.70
2019-05-23T07:02:56.120Z,0.70
2019-05-23T07:07:59.314Z,0.53
2019-05-23T07:13:02.982Z,0.88
2019-05-23T07:18:06.983Z,0.68
2019-05-23T07:23:11.643Z,0.70
2019-05-23T07:28:14.906Z,0.80
2019-05-23T07:33:19.171Z,0.80
2019-05-23T07:38:22.433Z,0.90
2019-05-23T07:43:25.641Z,0.60
2019-05-23T07:48:29.375Z,0.70
2019-05-23T07:53:37.076Z,0.88
2019-05-23T07:58:40.878Z,1.05
2019-05-23T08:03:44.038Z,0.85
2019-05-23T08:08:48.063Z,0.80
2019-05-23T08:13:51.986Z,0.65
2019-05-23T08:18:55.666Z,0.70
2019-05-23T08:23:58.876Z,0.78
2019-05-23T08:29:24.786Z,0.60
2019-05-23T08:34:08.884Z,0.80
2019-05-23T08:39:12.240Z,0.90
2019-05-23T08:44:15.714Z,0.90
2019-05-23T08:49:18.907Z,0.72
2019-05-23T08:54:22.091Z,0.65
2019-05-23T08:59:25.299Z,0.80
2019-05-23T09:04:28.759Z,0.70
2019-05-23T09:09:32.727Z,0.70
2019-05-23T09:14:36.217Z,0.85
2019-05-23T09:19:39.403Z,0.95
2019-05-23T09:24:42.603Z,1.17
2019-05-23T09:29:45.861Z,0.80
2019-05-23T09:34:49.100Z,0.90
2019-05-23T09:39:52.297Z,0.72
2019-05-23T09:44:55.493Z,0.90
2019-05-23T09:49:58.738Z,0.98
2019-05-23T09:55:01.941Z,0.90
2019-05-23T10:00:09.182Z,0.85
2019-05-23T10:05:12.673Z,0.90
2019-05-23T10:10:17.515Z,1.00
2019-05-23T10:15:25.709Z,0.72
2019-05-23T10:20:29.586Z,0.88
2019-05-23T10:25:32.821Z,0.80
2019-05-23T10:30:35.981Z,1.15
2019-05-23T10:35:39.188Z,1.10
2019-05-23T10:40:42.377Z,0.88
2019-05-23T10:45:45.561Z,1.00
2019-05-23T10:50:48.763Z,1.00
2019-05-23T10:55:51.957Z,1.00
2019-05-23T11:00:55.820Z,0.90
2019-05-23T11:06:13.285Z,0.90
2019-05-23T11:11:05.334Z,1.00
2019-05-23T11:16:09.228Z,0.82
2019-05-23T11:21:12.417Z,1.10
2019-05-23T11:26:15.629Z,1.00
2019-05-23T11:31:18.985Z,0.82
2019-05-23T11:36:34.746Z,0.90
2019-05-23T11:41:27.372Z,0.97
2019-05-23T11:46:32.224Z,0.93
2019-05-23T11:51:36.627Z,1.10
2019-05-23T11:56:39.814Z,0.98
2019-05-23T12:01:44.651Z,1.05
2019-05-23T12:06:55.370Z,1.17
2019-05-23T12:11:54.396Z,1.30
2019-05-23T12:16:57.666Z,1.15
2019-05-23T12:22:00.870Z,1.00
2019-05-23T12:27:04.139Z,1.10
2019-05-23T12:32:09.079Z,1.27
2019-05-23T12:37:19.071Z,0.93
2019-05-23T12:42:17.223Z,1.10
2019-05-23T12:47:22.081Z,1.40
2019-05-23T12:52:26.075Z,1.17
2019-05-23T12:57:29.356Z,1.22
2019-05-23T13:02:32.903Z,1.20
2019-05-23T13:07:36.905Z,1.17
2019-05-23T13:12:41.266Z,1.45
2019-05-23T13:17:44.472Z,1.15
2019-05-23T13:22:47.663Z,1.27
2019-05-23T13:27:51.049Z,1.25
2019-05-23T13:32:54.362Z,1.10
2019-05-23T13:37:57.544Z,1.30
2019-05-23T13:43:00.761Z,1.32
2019-05-23T13:48:04.634Z,1.10
2019-05-23T13:53:08.463Z,1.30
2019-05-23T13:58:11.674Z,1.15
2019-05-23T14:03:15.261Z,1.10
2019-05-23T14:08:19.433Z,1.15
2019-05-23T14:13:23.342Z,1.22
2019-05-23T14:18:28.330Z,1.32
2019-05-23T14:23:33.190Z,1.32
2019-05-23T14:28:36.913Z,1.42
2019-05-23T14:33:50.765Z,1.30
2019-05-23T14:38:55.605Z,1.30
2019-05-23T14:43:59.095Z,1.50
2019-05-23T14:49:03.960Z,1.27
2019-05-23T14:54:14.584Z,1.42
2019-05-23T14:59:18.350Z,1.47
2019-05-23T15:04:22.307Z,1.20
2019-05-23T15:09:25.702Z,1.10
2019-05-23T15:14:28.925Z,1.20
2019-05-23T15:19:42.158Z,1.10
2019-05-23T15:24:37.245Z,0.98
2019-05-23T15:29:40.504Z,1.02
2019-05-23T15:34:43.688Z,1.22
2019-05-23T15:39:46.891Z,1.10
2019-05-23T15:44:50.158Z,1.00
2019-05-23T15:49:55.098Z,1.17
2019-05-23T15:55:11.643Z,0.90
2019-05-23T16:00:16.690Z,1.00
2019-05-23T16:05:19.930Z,1.10
2019-05-23T16:10:24.616Z,0.93
2019-05-23T16:15:28.016Z,1.10
2019-05-23T16:20:31.238Z,1.00
2019-05-23T16:25:34.447Z,1.12
2019-05-23T16:30:37.675Z,0.80
2019-05-23T16:35:40.886Z,0.95
2019-05-23T16:40:44.378Z,0.80
2019-05-23T16:45:47.605Z,1.05
2019-05-23T16:50:50.836Z,1.45
2019-05-23T16:55:55.700Z,0.82
2019-05-23T17:01:00.574Z,1.00
2019-05-23T17:06:05.427Z,0.98
2019-05-23T17:11:16.143Z,1.10
2019-05-23T17:16:24.059Z,0.90
2019-05-23T17:21:34.792Z,0.75
2019-05-23T17:26:51.643Z,0.70
2019-05-23T17:31:56.209Z,1.00
2019-05-23T17:36:59.428Z,0.80
2019-05-23T17:42:02.654Z,0.90
2019-05-23T17:47:05.878Z,1.00
2019-05-23T17:52:09.511Z,0.80
2019-05-23T17:57:12.741Z,0.80
2019-05-23T18:02:15.950Z,0.90
2019-05-23T18:07:20.336Z,0.90
2019-05-23T18:12:23.772Z,0.90
2019-05-23T18:17:27.178Z,0.80
2019-05-23T18:22:32.038Z,0.93
2019-05-23T18:27:35.417Z,0.80
2019-05-23T18:32:39.016Z,0.93
2019-05-23T18:37:42.231Z,0.90
2019-05-23T18:42:46.223Z,0.80
2019-05-23T18:47:49.902Z,1.10
2019-05-23T18:52:53.193Z,0.80
2019-05-23T18:57:56.405Z,0.70
2019-05-23T19:03:00.085Z,1.00
2019-05-23T19:08:03.292Z,1.00
2019-05-23T19:13:06.531Z,1.02
2019-05-23T19:18:10.031Z,0.95
2019-05-23T19:23:13.521Z,0.93
2019-05-23T19:28:17.173Z,0.78
2019-05-23T19:33:20.403Z,0.80
2019-05-23T19:38:23.791Z,0.88
2019-05-23T19:43:27.585Z,0.80
2019-05-23T19:48:31.073Z,0.90
2019-05-23T19:53:34.757Z,0.88
2019-05-23T19:58:37.985Z,1.10
2019-05-23T20:03:43.084Z,0.88
2019-05-23T20:08:47.161Z,1.10
2019-05-23T20:13:50.377Z,0.98
2019-05-23T20:18:53.589Z,1.00
2019-05-23T20:23:56.802Z,1.02
2019-05-23T20:29:03.144Z,1.05
2019-05-23T20:34:07.134Z,0.90
2019-05-23T20:39:10.066Z,1.00
2019-05-23T20:44:13.283Z,1.10
2019-05-23T20:49:16.493Z,0.98
2019-05-23T20:54:19.709Z,1.10
2019-05-23T20:59:23.113Z,1.00
2019-05-23T21:04:26.309Z,1.30
2019-05-23T21:09:29.521Z,1.22
2019-05-23T21:14:32.739Z,1.40
2019-05-23T21:19:35.953Z,1.45
2019-05-23T21:24:39.166Z,1.30
2019-05-23T21:29:42.381Z,1.52
2019-05-23T21:34:45.578Z,1.32
2019-05-23T21:39:48.778Z,1.40
2019-05-23T21:44:51.989Z,1.35
2019-05-23T21:49:55.201Z,1.30
2019-05-23T21:54:58.419Z,1.60
2019-05-23T22:00:01.648Z,1.40
2019-05-23T22:05:13.716Z,1.50
2019-05-23T22:10:16.998Z,1.32
2019-05-23T22:15:23.469Z,1.35
2019-05-23T22:20:26.688Z,1.40
2019-05-23T22:25:33.025Z,1.42
2019-05-23T22:30:36.237Z,1.30
2019-05-23T22:35:39.453Z,1.40
2019-05-23T22:40:42.662Z,1.30
2019-05-23T22:45:45.878Z,1.30
2019-05-23T22:50:49.124Z,1.32
2019-05-23T22:55:52.334Z,1.37
2019-05-23T23:00:55.718Z,1.10
2019-05-23T23:05:58.955Z,1.12
2019-05-23T23:11:02.170Z,1.25
2019-05-23T23:16:05.571Z,1.25
2019-05-23T23:21:08.805Z,1.30
2019-05-23T23:26:12.021Z,1.30
2019-05-23T23:31:15.401Z,1.40
2019-05-23T23:36:18.632Z,1.50
2019-05-23T23:41:21.845Z,1.40
2019-05-23T23:46:43.046Z,1.37
2019-05-23T23:52:04.323Z,1.45
2019-05-23T23:57:25.492Z,1.50
